This is the latest recevied weather packets stored in our database for station/object Kisslegg. If no packets are shown the sender has not sent any weather packets the latest 10 day(s).
| Time | Temp. | Humidity | Pressure | Rain* | Wind** | Luminosity | Snow |
|---|---|---|---|---|---|---|---|
| 1787842931 | 29.44° C | 57% | 1009.6 hPa | 0.51 mm | - | - | - |
| 1787841132 | 29.44° C | 55% | 1009.8 hPa | 0.51 mm | - | - | - |
| 1787839332 | 29.44° C | 57% | 1009.9 hPa | 0.51 mm | - | - | - |
| 1787837531 | 29.44° C | 52% | 1010.1 hPa | 0.51 mm | - | - | - |
| 1787835730 | 29.44° C | 48% | 1010.4 hPa | 0.51 mm | - | - | - |
| 1787833930 | 29.44° C | 52% | 1010.7 hPa | 0.51 mm | - | - | - |
| 1787832131 | 29.44° C | 50% | 1010.9 hPa | 0.51 mm | - | - | - |
| 1787830330 | 30.56° C | 47% | 1011.2 hPa | 0.51 mm | - | - | - |
| 1787828530 | 30.56° C | 44% | 1011.3 hPa | 0.51 mm | - | - | - |
| 1787826730 | 29.44° C | 48% | 1011.7 hPa | 0.51 mm | - | - | - |
| 1787824931 | 27.22° C | 57% | 1012 hPa | 0.51 mm | - | - | - |
| 1787823130 | 26.11° C | 55% | 1012.2 hPa | 0.51 mm | - | - | - |
| 1787821330 | 25° C | 69% | 1012.3 hPa | 0.51 mm | - | - | - |
| 1787819530 | 23.33° C | 75% | 1012.1 hPa | 0.51 mm | - | - | - |
| 1787817730 | 21.67° C | 82% | 1012.3 hPa | 0.51 mm | - | - | - |
| 1787815930 | 20° C | 85% | 1012 hPa | 0.51 mm | - | - | - |
| 1787814130 | 18.89° C | 86% | 1011.6 hPa | 0.51 mm | - | - | - |
| 1787812329 | 18.33° C | 90% | 1012.3 hPa | 0.25 mm | - | - | - |
| 1787810529 | 17.78° C | 89% | 1011.7 hPa | 0.25 mm | - | - | - |
| 1787808730 | 17.22° C | 90% | 1011.8 hPa | 0.25 mm | - | - | - |
| 1787806930 | 16.67° C | 91% | 1011.8 hPa | 0.25 mm | - | - | - |
| 1787805129 | 16.67° C | 90% | 1011.9 hPa | 0.25 mm | - | - | - |
| 1787803330 | 17.22° C | 89% | 1011.8 hPa | 0.25 mm | - | - | - |
| 1787801529 | 17.78° C | 89% | 1011.7 hPa | 0.25 mm | - | - | - |
| 1787799730 | 17.78° C | 89% | 1011.9 hPa | 0.25 mm | - | - | - |
* Rain since midnight (hover to see other rain measurements)
** Current wind speed in m/s (hover to see current wind gust speed)